Time;durP1;ratioP1;P1;durP2;ratioP2;P2;SDS_P1;SDS_P2;PMS_P1;PMS_P2;Temp;Humidity;BMP_temperature;BMP_pressure;BME280_temperature;BME280_humidity;BME280_pressure;Samples;Min_cycle;Max_cycle;Signal;HPM_P1;HPM_P2
2021/04/05 00:02:15;;;;;;;1.90;0.80;;;15.60;46.10;;;;;;5123996;28;20503;-40
2021/04/05 00:04:46;;;;;;;1.20;0.80;;;15.70;47.50;;;;;;5124194;28;20512;-41
2021/04/05 00:07:16;;;;;;;2.00;1.03;;;15.60;46.90;;;;;;5121390;28;21217;-40
2021/04/05 00:09:47;;;;;;;2.00;1.00;;;15.50;46.30;;;;;;5120878;28;20453;-38
2021/04/05 00:12:17;;;;;;;4.70;3.50;;;15.40;45.80;;;;;;5121403;28;20442;-40
2021/04/05 00:14:47;;;;;;;2.27;1.60;;;15.30;45.20;;;;;;5123922;28;20481;-40
2021/04/05 00:17:17;;;;;;;3.03;2.00;;;15.30;47.20;;;;;;5115250;28;20556;-41
2021/04/05 00:19:49;;;;;;;3.57;2.63;;;15.20;46.00;;;;;;5123639;28;20510;-40
2021/04/05 00:22:19;;;;;;;2.77;2.53;;;15.00;46.80;;;;;;5122434;28;20509;-40
2021/04/05 00:24:49;;;;;;;1.90;1.10;;;15.00;47.60;;;;;;5123292;28;20454;-40
2021/04/05 00:27:19;;;;;;;3.53;1.87;;;14.90;46.80;;;;;;5123478;27;20497;-41
2021/04/05 00:29:49;;;;;;;0.83;0.77;;;14.80;48.30;;;;;;5124351;28;20496;-41
2021/04/05 00:32:19;;;;;;;3.07;1.77;;;14.80;47.80;;;;;;5123361;28;20462;-40
2021/04/05 00:34:50;;;;;;;1.47;1.30;;;14.90;48.50;;;;;;5124050;28;20477;-40
2021/04/05 00:37:20;;;;;;;3.53;1.30;;;15.00;49.40;;;;;;5123476;28;20446;-41
2021/04/05 00:39:50;;;;;;;1.60;1.20;;;15.10;48.40;;;;;;5122766;28;20458;-40
2021/04/05 00:42:21;;;;;;;1.37;0.70;;;14.90;47.80;;;;;;5122750;28;20441;-41
2021/04/05 00:44:51;;;;;;;1.13;1.03;;;14.90;48.70;;;;;;5123075;28;20519;-41
2021/04/05 00:47:21;;;;;;;2.77;0.90;;;14.70;48.10;;;;;;5123207;28;20454;-43
2021/04/05 00:49:53;;;;;;;1.70;0.80;;;14.60;46.00;;;;;;5123725;28;20986;-41
2021/04/05 00:52:23;;;;;;;1.73;0.90;;;14.40;46.40;;;;;;5122834;28;20461;-41
2021/04/05 00:54:54;;;;;;;1.43;1.33;;;14.20;44.20;;;;;;5123271;28;20485;-41
2021/04/05 00:57:24;;;;;;;1.70;0.93;;;14.20;44.90;;;;;;5122671;28;20438;-41
2021/04/05 00:59:54;;;;;;;1.83;0.90;;;14.00;43.30;;;;;;5123257;28;20464;-42
2021/04/05 01:02:24;;;;;;;1.20;1.10;;;13.80;43.10;;;;;;5123098;28;20466;-41
2021/04/05 01:04:56;;;;;;;1.10;0.90;;;13.60;42.00;;;;;;5123143;28;20458;-42
2021/04/05 01:07:26;;;;;;;3.00;1.90;;;13.50;42.20;;;;;;5116229;28;20468;-41
2021/04/05 01:09:57;;;;;;;2.17;1.43;;;13.50;43.20;;;;;;5123557;28;20953;-39
2021/04/05 01:12:27;;;;;;;1.50;1.00;;;13.40;43.80;;;;;;5121923;28;20441;-42
2021/04/05 01:14:58;;;;;;;1.80;1.37;;;13.40;47.60;;;;;;5122307;28;20473;-41
2021/04/05 01:17:28;;;;;;;3.40;1.40;;;13.50;50.00;;;;;;5122906;28;20450;-41
2021/04/05 01:19:59;;;;;;;2.60;1.70;;;13.60;51.10;;;;;;5123398;28;20529;-42
2021/04/05 01:22:30;;;;;;;3.00;1.20;;;13.70;51.40;;;;;;5117035;28;20460;-41
2021/04/05 01:25:00;;;;;;;3.50;1.30;;;13.60;52.20;;;;;;5122696;28;20447;-42
2021/04/05 01:27:30;;;;;;;5.13;1.30;;;13.50;53.40;;;;;;5122250;28;20442;-43
2021/04/05 01:30:00;;;;;;;5.17;1.40;;;13.20;53.80;;;;;;5134785;28;20545;-42
2021/04/05 01:32:31;;;;;;;2.63;0.97;;;13.10;54.50;;;;;;5115851;28;20449;-40
2021/04/05 01:35:01;;;;;;;1.93;1.40;;;13.00;54.80;;;;;;5123190;28;20806;-42
2021/04/05 01:37:32;;;;;;;2.70;1.20;;;13.00;54.70;;;;;;5125014;28;20500;-40
2021/04/05 01:40:02;;;;;;;6.17;1.30;;;12.90;55.00;;;;;;5127105;28;20436;-41
2021/04/05 01:42:32;;;;;;;4.27;1.30;;;12.80;54.50;;;;;;5125096;28;20454;-40
2021/04/05 01:45:02;;;;;;;2.97;1.30;;;12.60;54.80;;;;;;5126436;28;20473;-41
2021/04/05 01:47:32;;;;;;;1.47;1.27;;;12.60;56.30;;;;;;5126770;28;20453;-40
2021/04/05 01:50:02;;;;;;;4.07;1.00;;;12.40;54.60;;;;;;5126620;28;20518;-40
2021/04/05 01:52:34;;;;;;;2.33;1.27;;;12.10;55.10;;;;;;5126619;28;20451;-40
2021/04/05 01:55:04;;;;;;;3.27;1.03;;;11.80;55.70;;;;;;5127336;28;20805;-36
2021/04/05 01:57:34;;;;;;;1.50;0.93;;;11.60;54.50;;;;;;5126845;27;20451;-40
2021/04/05 02:00:09;;;;;;;3.10;1.58;;;11.50;54.10;;;;;;5126839;28;20228;-41
2021/04/05 02:02:40;;;;;;;1.67;1.27;;;11.30;54.10;;;;;;5125944;28;20196;-39
2021/04/05 02:05:11;;;;;;;2.70;1.10;;;11.30;53.60;;;;;;5127752;27;20448;-41
2021/04/05 02:07:42;;;;;;;1.43;0.60;;;11.30;53.70;;;;;;5126658;28;20440;-41
2021/04/05 02:10:17;;;;;;;1.33;1.20;;;11.30;53.80;;;;;;5127128;28;20488;-41
2021/04/05 02:12:48;;;;;;;2.83;0.80;;;11.30;54.30;;;;;;5125358;28;20212;-41
2021/04/05 02:15:19;;;;;;;2.25;1.20;;;11.30;53.80;;;;;;5126199;28;20475;-41
2021/04/05 02:17:49;;;;;;;2.35;0.88;;;11.30;55.30;;;;;;5126031;28;20534;-42
2021/04/05 02:20:19;;;;;;;3.55;0.90;;;11.30;56.00;;;;;;5126231;28;20206;-39
2021/04/05 02:22:53;;;;;;;2.20;1.00;;;11.30;56.60;;;;;;5125825;28;20203;-41
2021/04/05 02:25:24;;;;;;;2.00;1.20;;;11.30;56.70;;;;;;5126355;28;20210;-42
2021/04/05 02:27:54;;;;;;;1.00;0.90;;;11.30;57.70;;;;;;5124967;28;20205;-42
2021/04/05 02:30:28;;;;;;;2.33;1.10;;;11.30;57.50;;;;;;5126472;28;20212;-41
2021/04/05 02:33:01;;;;;;;2.30;1.00;;;11.20;57.00;;;;;;5125576;28;20440;-40
2021/04/05 02:35:34;;;;;;;1.05;0.90;;;11.20;57.40;;;;;;5126285;28;20545;-41
2021/04/05 02:38:06;;;;;;;3.45;0.80;;;11.20;57.80;;;;;;5126465;28;20286;-39
2021/04/05 02:40:36;;;;;;;3.23;0.90;;;11.10;57.10;;;;;;5125538;28;20761;-40
2021/04/05 02:43:06;;;;;;;2.45;0.75;;;11.00;56.90;;;;;;5124790;28;20514;-41
2021/04/05 02:45:37;;;;;;;2.45;1.08;;;10.90;56.80;;;;;;5125841;28;20228;-38
2021/04/05 02:48:09;;;;;;;5.97;0.90;;;10.70;57.10;;;;;;5125567;28;20205;-42
2021/04/05 02:50:39;;;;;;;1.80;0.90;;;10.60;57.80;;;;;;5125798;28;20212;-41
2021/04/05 02:53:11;;;;;;;1.08;0.93;;;10.50;57.10;;;;;;5124872;28;20216;-42
2021/04/05 02:55:41;;;;;;;0.80;0.80;;;10.40;57.40;;;;;;5126665;27;20235;-42
2021/04/05 02:58:12;;;;;;;1.85;0.95;;;10.40;58.20;;;;;;5124810;28;20283;-41
2021/04/05 03:00:42;;;;;;;0.88;0.88;;;10.20;58.70;;;;;;5125453;28;20237;-41
2021/04/05 03:03:12;;;;;;;2.75;1.02;;;10.20;59.00;;;;;;5110840;28;20248;-41
2021/04/05 03:05:42;;;;;;;2.42;1.10;;;10.20;58.90;;;;;;5125798;28;20192;-41
2021/04/05 03:08:15;;;;;;;1.77;1.08;;;10.20;59.40;;;;;;5126120;28;20205;-42
2021/04/05 03:10:45;;;;;;;2.70;1.15;;;10.20;59.40;;;;;;5125157;28;20638;-41
2021/04/05 03:13:17;;;;;;;3.58;0.80;;;10.20;59.40;;;;;;5124093;28;20214;-42
2021/04/05 03:15:47;;;;;;;2.45;0.90;;;10.10;61.10;;;;;;5124826;28;20250;-41
2021/04/05 03:18:19;;;;;;;2.92;1.05;;;10.00;60.70;;;;;;5125346;28;20199;-41
2021/04/05 03:20:50;;;;;;;1.10;0.75;;;9.90;64.40;;;;;;5123972;28;20213;-41
2021/04/05 03:23:23;;;;;;;0.80;0.77;;;9.80;63.00;;;;;;5125072;28;20201;-41
2021/04/05 03:25:53;;;;;;;1.65;1.08;;;9.70;62.50;;;;;;5125451;28;20229;-41
2021/04/05 03:28:23;;;;;;;2.83;1.35;;;9.70;63.20;;;;;;5124082;28;20204;-41
2021/04/05 03:30:59;;;;;;;2.50;1.10;;;9.60;64.20;;;;;;5125411;28;20219;-40
2021/04/05 03:33:34;;;;;;;1.15;0.75;;;9.50;63.80;;;;;;5124737;28;20649;-41
2021/04/05 03:36:17;;;;;;;1.40;0.70;;;9.40;63.30;;;;;;5124785;28;20597;-40
2021/04/05 03:38:48;;;;;;;2.70;0.80;;;9.30;64.30;;;;;;5124962;28;20215;-41
2021/04/05 03:41:26;;;;;;;0.80;0.70;;;9.20;64.70;;;;;;5123645;28;20218;-40
2021/04/05 03:44:03;;;;;;;2.15;0.80;;;9.20;65.70;;;;;;5126636;27;20324;-41
2021/04/05 03:46:38;;;;;;;1.38;0.95;;;9.10;65.80;;;;;;5124393;28;20200;-40
2021/04/05 03:49:23;;;;;;;1.27;0.90;;;9.00;66.30;;;;;;5124085;28;20204;-41
2021/04/05 03:51:59;;;;;;;1.33;0.93;;;9.00;67.50;;;;;;5123511;28;20663;-40
2021/04/05 03:54:37;;;;;;;1.60;0.95;;;8.90;67.70;;;;;;5121873;28;20628;-41
2021/04/05 03:57:09;;;;;;;1.55;0.98;;;8.80;69.20;;;;;;5123367;28;20215;-40
2021/04/05 03:59:43;;;;;;;2.95;0.95;;;8.70;69.60;;;;;;5123838;28;20203;-41
2021/04/05 04:02:18;;;;;;;0.80;0.80;;;8.60;69.90;;;;;;5124059;28;20248;-40
2021/04/05 04:04:56;;;;;;;1.73;1.30;;;8.50;71.20;;;;;;5123991;28;20199;-40
2021/04/05 04:07:34;;;;;;;1.50;0.98;;;8.50;71.80;;;;;;5124312;28;20223;-35
2021/04/05 04:10:09;;;;;;;2.90;1.50;;;8.40;72.70;;;;;;5107808;28;20282;-38
2021/04/05 04:12:43;;;;;;;2.30;1.35;;;8.40;74.00;;;;;;5123495;28;20201;-38
2021/04/05 04:15:14;;;;;;;2.20;1.38;;;8.30;74.20;;;;;;5123060;28;20235;-38
2021/04/05 04:17:45;;;;;;;2.58;1.20;;;8.20;75.30;;;;;;5123724;28;20196;-39
2021/04/05 04:20:19;;;;;;;2.72;1.60;;;8.20;76.10;;;;;;5124075;28;20226;-40
2021/04/05 04:22:50;;;;;;;1.65;1.10;;;8.20;76.60;;;;;;5122993;28;20204;-38
2021/04/05 04:25:21;;;;;;;2.10;1.20;;;8.20;77.10;;;;;;5123467;28;20204;-34
2021/04/05 04:27:51;;;;;;;1.60;1.13;;;8.20;77.60;;;;;;5122879;28;20217;-37
2021/04/05 04:30:32;;;;;;;3.90;1.17;;;8.10;79.70;;;;;;5123994;28;20203;-37
2021/04/05 04:33:04;;;;;;;3.92;1.33;;;8.00;79.60;;;;;;5123650;28;20215;-36
2021/04/05 04:35:35;;;;;;;1.35;0.85;;;8.00;80.70;;;;;;5123514;28;20222;-38
2021/04/05 04:38:06;;;;;;;1.20;0.90;;;8.00;81.60;;;;;;5123294;28;20532;-38
2021/04/05 04:40:38;;;;;;;1.42;1.10;;;8.00;82.90;;;;;;5123695;28;20302;-37
2021/04/05 04:43:09;;;;;;;1.98;1.23;;;7.80;83.20;;;;;;5122625;28;20616;-38
2021/04/05 04:45:40;;;;;;;2.30;1.10;;;7.80;85.90;;;;;;5123318;28;20230;-38
2021/04/05 04:48:10;;;;;;;2.33;1.30;;;7.70;86.30;;;;;;5122843;28;20230;-38
2021/04/05 04:50:41;;;;;;;1.90;1.23;;;7.60;87.10;;;;;;5124179;28;20204;-39
2021/04/05 04:53:11;;;;;;;4.20;1.60;;;7.70;88.30;;;;;;5122861;28;20221;-39
2021/04/05 04:55:43;;;;;;;3.65;1.10;;;7.60;89.60;;;;;;5122863;28;20216;-37
2021/04/05 04:58:14;;;;;;;1.70;1.23;;;7.60;90.30;;;;;;5121389;28;20192;-40
2021/04/05 05:00:44;;;;;;;2.45;1.20;;;7.60;90.60;;;;;;5123644;28;20206;-37
2021/04/05 05:03:14;;;;;;;1.70;1.10;;;7.50;90.90;;;;;;5122801;28;20203;-37
2021/04/05 05:05:45;;;;;;;2.35;1.17;;;7.50;91.20;;;;;;5124225;28;20199;-38
2021/04/05 05:08:15;;;;;;;3.22;1.20;;;7.50;91.90;;;;;;5122784;28;20654;-37
2021/04/05 05:10:48;;;;;;;1.50;0.90;;;7.50;92.10;;;;;;5118083;28;20200;-38
2021/04/05 05:13:18;;;;;;;2.42;1.30;;;7.50;92.20;;;;;;5123010;28;20549;-36
2021/04/05 05:15:49;;;;;;;1.77;1.20;;;7.40;92.60;;;;;;5122995;28;20381;-39
2021/04/05 05:18:19;;;;;;;2.35;1.20;;;7.30;93.80;;;;;;5123276;28;20210;-39
2021/04/05 05:20:49;;;;;;;3.42;1.20;;;7.40;93.90;;;;;;5114729;28;20261;-37
2021/04/05 05:23:20;;;;;;;2.72;1.30;;;7.40;93.90;;;;;;5122965;28;20196;-36
2021/04/05 05:25:51;;;;;;;1.45;1.13;;;7.30;94.00;;;;;;5112901;28;20195;-39
2021/04/05 05:28:23;;;;;;;1.70;1.20;;;7.20;94.90;;;;;;5127544;28;20187;-39
2021/04/05 05:30:53;;;;;;;1.73;1.23;;;7.20;95.00;;;;;;5126650;28;20200;-36
2021/04/05 05:33:24;;;;;;;3.40;1.60;;;7.20;96.00;;;;;;5121218;28;20204;-38
2021/04/05 05:35:54;;;;;;;2.80;1.42;;;7.20;95.90;;;;;;5123321;28;20223;-36
2021/04/05 05:38:25;;;;;;;1.48;1.38;;;7.20;96.10;;;;;;5123076;28;20241;-39
2021/04/05 05:41:00;;;;;;;3.30;1.60;;;7.20;96.50;;;;;;5123466;28;20647;-39
2021/04/05 05:43:38;;;;;;;3.03;1.70;;;7.10;96.80;;;;;;5120294;28;20179;-36
2021/04/05 05:46:17;;;;;;;3.42;1.38;;;7.10;97.40;;;;;;5121826;28;20276;-38
2021/04/05 05:49:11;;;;;;;1.85;0.95;;;7.10;97.90;;;;;;5117851;28;20206;-37
2021/04/05 05:52:05;;;;;;;2.03;1.38;;;7.00;97.60;;;;;;5115187;28;20211;-35
2021/04/05 05:55:13;;;;;;;1.83;1.58;;;7.00;98.10;;;;;;5123247;28;20281;-38
2021/04/05 05:57:50;;;;;;;3.65;1.67;;;7.00;99.00;;;;;;5112325;28;20203;-36
2021/04/05 06:00:24;;;;;;;6.28;1.40;;;6.90;99.60;;;;;;5122885;28;20196;-38
2021/04/05 06:03:08;;;;;;;4.47;1.80;;;6.90;99.20;;;;;;5122973;28;20256;-37
2021/04/05 06:05:45;;;;;;;2.97;1.50;;;6.80;99.90;;;;;;5122693;28;21704;-37
2021/04/05 06:08:30;;;;;;;2.40;1.35;;;6.80;99.90;;;;;;5122037;28;20229;-35
2021/04/05 06:11:13;;;;;;;2.85;1.98;;;6.70;99.90;;;;;;5122620;28;20222;-38
2021/04/05 06:14:02;;;;;;;3.38;1.35;;;6.70;99.90;;;;;;5122508;28;20215;-37
2021/04/05 06:16:48;;;;;;;2.58;1.30;;;6.60;99.90;;;;;;5121873;28;20313;-38
2021/04/05 06:19:28;;;;;;;2.55;1.48;;;6.60;99.90;;;;;;5123015;28;20202;-37
2021/04/05 06:22:06;;;;;;;2.30;1.40;;;6.60;99.90;;;;;;5123029;28;20199;-39
2021/04/05 06:24:51;;;;;;;1.55;1.13;;;6.50;99.90;;;;;;5125180;28;20260;-37
2021/04/05 06:27:29;;;;;;;2.80;1.25;;;6.50;99.90;;;;;;5125187;28;20195;-39
2021/04/05 06:30:06;;;;;;;4.45;1.45;;;6.50;99.90;;;;;;5126205;28;20225;-39
2021/04/05 06:32:48;;;;;;;3.67;1.40;;;6.50;99.90;;;;;;5125749;28;20203;-35
2021/04/05 06:35:45;;;;;;;1.58;1.10;;;6.40;99.90;;;;;;5126550;28;20200;-36
2021/04/05 06:38:23;;;;;;;3.08;1.30;;;6.30;99.90;;;;;;5125106;28;20204;-38
2021/04/05 06:40:57;;;;;;;2.50;1.40;;;6.30;99.90;;;;;;5125950;28;20204;-38
2021/04/05 06:43:57;;;;;;;8.07;1.55;;;6.20;99.90;;;;;;5125120;28;20228;-33
2021/04/05 06:46:44;;;;;;;2.63;1.25;;;6.20;99.90;;;;;;5125619;28;20229;-36
2021/04/05 06:49:36;;;;;;;4.90;1.20;;;6.20;99.90;;;;;;5126331;28;20203;-37
2021/04/05 06:52:25;;;;;;;2.28;1.33;;;6.30;99.90;;;;;;5124998;28;20260;-35
2021/04/05 06:55:16;;;;;;;2.05;1.50;;;6.30;99.90;;;;;;5117783;28;20188;-36
2021/04/05 06:58:11;;;;;;;2.28;1.25;;;6.30;99.90;;;;;;5124226;28;20196;-38
2021/04/05 07:00:54;;;;;;;2.65;1.00;;;6.20;99.90;;;;;;5125739;28;20196;-38
2021/04/05 07:03:56;;;;;;;7.90;1.30;;;6.20;99.90;;;;;;5125996;28;20248;-36
2021/04/05 07:06:47;;;;;;;2.72;1.42;;;6.10;99.90;;;;;;5105519;28;20274;-38
2021/04/05 07:09:30;;;;;;;2.63;1.20;;;6.20;99.90;;;;;;5125367;28;20199;-37
2021/04/05 07:12:28;;;;;;;5.57;1.15;;;6.10;99.90;;;;;;5124636;28;20271;-36
2021/04/05 07:15:13;;;;;;;1.60;1.30;;;6.10;99.90;;;;;;5125457;28;20268;-33
2021/04/05 07:17:51;;;;;;;2.58;2.20;;;6.10;99.90;;;;;;5124499;28;20212;-35
2021/04/05 07:20:27;;;;;;;1.83;1.40;;;6.10;99.90;;;;;;5115278;28;20199;-37
2021/04/05 07:23:12;;;;;;;2.47;1.27;;;6.00;99.90;;;;;;5124948;28;20290;-35
2021/04/05 07:25:59;;;;;;;0.80;0.80;;;6.00;99.90;;;;;;5125227;28;20229;-38
2021/04/05 07:28:41;;;;;;;4.63;1.02;;;6.00;99.90;;;;;;5124497;28;20198;-40
2021/04/05 07:31:22;;;;;;;1.95;1.15;;;6.00;99.90;;;;;;5125168;28;20200;-39
2021/04/05 07:33:55;;;;;;;2.22;1.40;;;6.00;99.90;;;;;;5124657;28;20242;-38
2021/04/05 07:36:32;;;;;;;1.42;1.30;;;6.00;99.90;;;;;;5124137;28;20257;-39
2021/04/05 07:39:09;;;;;;;1.10;0.90;;;6.00;99.90;;;;;;5125082;28;20200;-38
2021/04/05 07:41:47;;;;;;;1.52;1.30;;;6.00;99.90;;;;;;5123729;28;20611;-38
2021/04/05 07:44:33;;;;;;;3.40;1.30;;;6.00;99.90;;;;;;5118239;28;20271;-38
2021/04/05 07:47:13;;;;;;;1.17;0.90;;;6.00;99.90;;;;;;5117121;28;20204;-38
2021/04/05 07:49:49;;;;;;;0.90;0.90;;;6.00;99.90;;;;;;5124218;28;20248;-37
2021/04/05 07:52:35;;;;;;;1.02;1.00;;;6.00;99.90;;;;;;5124782;28;20202;-35
2021/04/05 07:55:07;;;;;;;1.27;0.98;;;6.00;99.90;;;;;;5117966;28;20247;-39
2021/04/05 07:57:48;;;;;;;1.05;0.60;;;5.90;99.90;;;;;;5123235;28;20580;-38
2021/04/05 08:00:27;;;;;;;2.42;1.33;;;5.90;99.90;;;;;;5124395;28;20204;-36
2021/04/05 08:03:16;;;;;;;1.05;0.90;;;5.80;99.90;;;;;;5123803;28;20224;-37
2021/04/05 08:05:55;;;;;;;5.60;1.13;;;5.80;99.90;;;;;;5124054;28;20196;-35
2021/04/05 08:08:49;;;;;;;3.85;1.05;;;5.80;99.90;;;;;;5122166;28;20341;-38
2021/04/05 08:11:54;;;;;;;1.27;1.00;;;5.80;99.90;;;;;;5123279;28;20647;-37
2021/04/05 08:14:46;;;;;;;3.08;1.83;;;5.80;99.90;;;;;;5114425;28;20244;-38
2021/04/05 08:17:29;;;;;;;3.38;1.25;;;5.80;99.90;;;;;;5123163;28;20227;-38
2021/04/05 08:20:03;;;;;;;1.27;1.17;;;5.70;99.90;;;;;;5123981;28;20662;-35
2021/04/05 08:22:44;;;;;;;1.90;1.10;;;5.70;99.90;;;;;;5123575;28;20218;-36
2021/04/05 08:25:27;;;;;;;2.72;1.00;;;5.70;99.90;;;;;;5109266;28;20317;-37
2021/04/05 08:28:11;;;;;;;1.27;0.90;;;5.50;99.90;;;;;;5122554;28;20506;-35
2021/04/05 08:30:51;;;;;;;1.45;1.20;;;5.50;99.90;;;;;;5124049;28;20200;-37
2021/04/05 08:33:34;;;;;;;2.88;0.95;;;5.50;99.90;;;;;;5123590;28;20199;-40
2021/04/05 08:36:16;;;;;;;1.67;1.55;;;5.40;99.90;;;;;;5123570;28;20226;-39
2021/04/05 08:38:57;;;;;;;1.00;1.00;;;5.30;99.90;;;;;;5123435;28;20268;-38
2021/04/05 08:41:56;;;;;;;4.95;1.35;;;5.40;99.90;;;;;;5122524;28;20196;-37
2021/04/05 08:44:38;;;;;;;4.05;1.08;;;5.20;99.90;;;;;;5123182;28;20221;-37
2021/04/05 08:47:13;;;;;;;2.70;1.20;;;5.30;99.90;;;;;;5123139;28;20252;-38
2021/04/05 08:49:48;;;;;;;1.38;1.05;;;5.20;99.90;;;;;;5123865;28;20244;-36
2021/04/05 08:52:24;;;;;;;3.60;1.30;;;5.10;99.90;;;;;;5123120;28;20199;-35
2021/04/05 08:54:56;;;;;;;2.95;1.00;;;5.10;99.90;;;;;;5123575;28;20203;-35
2021/04/05 08:57:30;;;;;;;3.45;1.25;;;5.10;99.90;;;;;;5121308;28;20300;-35
2021/04/05 09:00:05;;;;;;;1.85;1.02;;;5.10;99.90;;;;;;5123218;28;20195;-38
2021/04/05 09:02:39;;;;;;;2.10;1.30;;;5.10;99.90;;;;;;5122748;28;20574;-36
2021/04/05 09:05:13;;;;;;;1.20;0.93;;;5.10;99.90;;;;;;5121081;28;20245;-35
2021/04/05 09:08:02;;;;;;;2.15;1.13;;;5.00;99.90;;;;;;5122635;28;20260;-33
2021/04/05 09:10:35;;;;;;;1.52;1.42;;;4.90;99.90;;;;;;5123286;28;20204;-37
2021/04/05 09:13:13;;;;;;;2.22;1.10;;;4.90;99.90;;;;;;5122310;28;20207;-35
2021/04/05 09:16:14;;;;;;;2.10;1.05;;;4.90;99.90;;;;;;5123245;28;20654;-34
2021/04/05 09:19:34;;;;;;;1.90;1.30;;;5.00;99.90;;;;;;5122950;28;20199;-39
2021/04/05 09:22:47;;;;;;;1.35;0.98;;;4.90;99.90;;;;;;5122647;28;20196;-36
2021/04/05 09:25:45;;;;;;;3.80;1.20;;;4.90;99.90;;;;;;5115376;28;20196;-38
2021/04/05 09:28:39;;;;;;;1.20;1.17;;;5.00;99.90;;;;;;5121825;28;20204;-37
2021/04/05 09:31:32;;;;;;;2.45;1.23;;;5.00;99.90;;;;;;5123037;28;20291;-37
2021/04/05 09:34:37;;;;;;;2.47;1.00;;;4.90;99.90;;;;;;5122457;28;20199;-38
2021/04/05 09:37:30;;;;;;;2.60;1.50;;;4.90;99.90;;;;;;5122741;28;20219;-38
2021/04/05 09:40:28;;;;;;;2.13;1.15;;;4.80;99.90;;;;;;5122543;28;20252;-36
2021/04/05 09:43:31;;;;;;;3.13;1.27;;;4.80;99.90;;;;;;5115938;28;20207;-37
2021/04/05 09:46:37;;;;;;;1.20;1.10;;;4.70;99.90;;;;;;5106217;28;20260;-35
2021/04/05 09:49:14;;;;;;;3.08;1.40;;;4.70;99.90;;;;;;5122396;28;20257;-37
2021/04/05 09:52:07;;;;;;;2.03;0.90;;;4.70;99.90;;;;;;5122120;28;20253;-38
2021/04/05 09:54:40;;;;;;;3.05;1.15;;;4.60;99.90;;;;;;5123023;28;20359;-37
2021/04/05 09:57:33;;;;;;;1.98;0.98;;;4.50;99.90;;;;;;5123266;28;20219;-34
2021/04/05 10:00:10;;;;;;;0.98;0.95;;;4.50;99.90;;;;;;5126110;28;20348;-36
2021/04/05 10:02:49;;;;;;;1.70;1.08;;;4.50;99.90;;;;;;5126223;28;20191;-36
2021/04/05 10:05:21;;;;;;;1.30;1.20;;;4.40;99.90;;;;;;5126487;28;20200;-33
2021/04/05 10:07:54;;;;;;;1.70;1.30;;;4.40;99.90;;;;;;5126375;28;20212;-36
2021/04/05 10:10:25;;;;;;;1.40;0.93;;;4.40;99.90;;;;;;5126468;28;20200;-34
2021/04/05 10:12:59;;;;;;;3.50;1.10;;;4.40;99.90;;;;;;5125712;28;20754;-38
2021/04/05 10:15:30;;;;;;;1.52;1.25;;;4.20;99.90;;;;;;5119828;28;20610;-35
2021/04/05 10:18:03;;;;;;;1.23;1.13;;;4.30;99.90;;;;;;5125845;28;20228;-38
2021/04/05 10:20:34;;;;;;;4.00;1.17;;;4.30;99.90;;;;;;5124396;28;20256;-37
2021/04/05 10:23:07;;;;;;;1.13;1.02;;;4.30;99.90;;;;;;5125226;28;20234;-34
2021/04/05 10:25:39;;;;;;;1.40;1.30;;;4.30;99.90;;;;;;5126213;28;20280;-36
2021/04/05 10:28:14;;;;;;;6.47;1.50;;;4.20;99.90;;;;;;5125324;28;20184;-34
2021/04/05 10:30:44;;;;;;;1.60;1.20;;;4.00;99.90;;;;;;5126512;28;20203;-34
2021/04/05 10:33:17;;;;;;;2.10;1.40;;;4.00;99.90;;;;;;5125914;28;20302;-35
2021/04/05 10:35:50;;;;;;;2.10;1.35;;;4.00;99.90;;;;;;5126326;28;20260;-37
2021/04/05 10:38:20;;;;;;;1.98;1.70;;;4.00;99.90;;;;;;5126378;28;20671;-35
2021/04/05 10:40:52;;;;;;;2.55;1.20;;;3.90;99.90;;;;;;5125769;28;20682;-37
2021/04/05 10:43:26;;;;;;;1.75;1.30;;;3.90;99.90;;;;;;5125209;28;20188;-35
2021/04/05 10:46:00;;;;;;;2.00;1.50;;;3.80;99.90;;;;;;5126610;28;20195;-36
2021/04/05 10:48:40;;;;;;;1.70;1.42;;;3.80;99.90;;;;;;5125337;28;20248;-39
2021/04/05 10:51:18;;;;;;;1.98;1.33;;;3.80;99.90;;;;;;5125806;28;20192;-39
2021/04/05 10:53:59;;;;;;;3.90;1.05;;;3.70;99.90;;;;;;5125933;28;20256;-39
2021/04/05 10:56:30;;;;;;;1.90;1.45;;;3.60;99.90;;;;;;5125243;28;20220;-35
2021/04/05 10:59:04;;;;;;;3.95;1.40;;;3.60;99.90;;;;;;5124983;28;20196;-33
2021/04/05 11:01:41;;;;;;;1.58;1.13;;;3.50;99.90;;;;;;5125698;28;20344;-33
2021/04/05 11:04:14;;;;;;;1.95;1.20;;;3.50;99.90;;;;;;5125261;28;20594;-36
2021/04/05 11:06:45;;;;;;;1.70;1.60;;;3.50;99.90;;;;;;5125314;28;20196;-36
2021/04/05 11:09:16;;;;;;;1.83;1.10;;;3.50;99.90;;;;;;5123659;28;20200;-35
2021/04/05 11:11:51;;;;;;;3.03;1.38;;;3.50;99.90;;;;;;5124644;28;20200;-37
2021/04/05 11:14:25;;;;;;;1.63;1.40;;;3.50;99.90;;;;;;5125436;28;20287;-37
2021/04/05 11:16:58;;;;;;;3.40;1.30;;;3.50;99.90;;;;;;5125473;28;20326;-36
2021/04/05 11:19:33;;;;;;;2.90;1.10;;;3.40;99.90;;;;;;5125044;28;20203;-36
2021/04/05 11:22:04;;;;;;;2.50;1.38;;;3.40;99.90;;;;;;5125660;28;20283;-38
2021/04/05 11:24:37;;;;;;;4.63;1.45;;;3.30;99.90;;;;;;5125255;28;20248;-36
2021/04/05 11:27:10;;;;;;;1.77;1.23;;;3.40;99.90;;;;;;5124229;28;20647;-33
2021/04/05 11:29:45;;;;;;;1.50;1.20;;;3.30;99.90;;;;;;5119125;28;20196;-38
2021/04/05 11:32:18;;;;;;;3.33;1.15;;;3.30;99.90;;;;;;5124718;28;20200;-33
2021/04/05 11:34:54;;;;;;;4.20;1.35;;;3.30;99.90;;;;;;5124734;28;20221;-38
2021/04/05 11:37:28;;;;;;;2.55;1.20;;;3.20;99.90;;;;;;5124416;28;20261;-35
2021/04/05 11:40:02;;;;;;;1.40;1.30;;;3.10;99.90;;;;;;5124439;28;20199;-35
2021/04/05 11:42:36;;;;;;;5.07;1.38;;;3.20;99.90;;;;;;5114458;28;20256;-37
2021/04/05 11:45:41;;;;;;;2.85;1.48;;;3.20;99.90;;;;;;5124836;28;20231;-36
2021/04/05 11:48:17;;;;;;;3.13;1.88;;;3.10;99.90;;;;;;5111824;28;20223;-34
2021/04/05 11:50:48;;;;;;;1.70;1.30;;;3.10;99.90;;;;;;5124368;28;20208;-33
2021/04/05 11:53:27;;;;;;;2.45;1.88;;;3.10;99.90;;;;;;5124549;28;20196;-36
2021/04/05 11:56:12;;;;;;;2.42;1.70;;;3.10;99.90;;;;;;5109535;28;20184;-35
2021/04/05 11:58:46;;;;;;;4.05;1.48;;;3.00;99.90;;;;;;5115099;28;20890;-36
2021/04/05 12:01:21;;;;;;;3.67;1.58;;;3.00;99.90;;;;;;5124149;28;20265;-36
2021/04/05 12:03:57;;;;;;;3.20;1.70;;;3.00;99.90;;;;;;5124471;28;20204;-32
2021/04/05 12:06:43;;;;;;;3.25;1.48;;;3.00;99.90;;;;;;5124863;27;20655;-38
2021/04/05 12:09:22;;;;;;;2.78;1.30;;;3.00;99.90;;;;;;5126133;27;20230;-39
2021/04/05 12:12:02;;;;;;;1.90;1.77;;;2.90;99.90;;;;;;5123250;28;20272;-33
2021/04/05 12:14:33;;;;;;;3.30;1.50;;;2.90;99.90;;;;;;5124749;28;20196;-35
2021/04/05 12:17:04;;;;;;;2.78;1.90;;;2.80;99.90;;;;;;5124150;28;20223;-34
2021/04/05 12:19:38;;;;;;;3.53;2.65;;;2.80;99.90;;;;;;5123679;28;20200;-35
2021/04/05 12:22:10;;;;;;;4.53;1.70;;;2.70;99.90;;;;;;5123844;28;20287;-35
2021/04/05 12:24:46;;;;;;;3.28;1.80;;;2.70;99.90;;;;;;5124343;28;20211;-37
2021/04/05 12:27:17;;;;;;;5.18;1.50;;;2.70;99.90;;;;;;5120837;28;20241;-38
2021/04/05 12:29:51;;;;;;;4.00;1.65;;;2.70;99.90;;;;;;5122414;28;20192;-34
2021/04/05 12:32:24;;;;;;;4.22;1.85;;;2.70;99.90;;;;;;5121036;28;20524;-39
2021/04/05 12:35:00;;;;;;;2.65;2.13;;;2.60;99.90;;;;;;5123911;28;20247;-36
2021/04/05 12:37:33;;;;;;;2.65;1.73;;;2.60;99.90;;;;;;5122806;28;20225;-38
2021/04/05 12:40:05;;;;;;;3.00;1.77;;;2.60;99.90;;;;;;5121429;28;20248;-33
2021/04/05 12:42:39;;;;;;;3.20;2.00;;;2.60;99.90;;;;;;5123044;28;20245;-34
2021/04/05 12:45:16;;;;;;;4.35;2.30;;;2.60;99.90;;;;;;5123571;28;20223;-36
2021/04/05 12:47:50;;;;;;;3.58;2.10;;;2.50;99.90;;;;;;5123823;28;20183;-37
2021/04/05 12:50:26;;;;;;;5.20;2.20;;;2.60;99.90;;;;;;5123773;28;20207;-35
2021/04/05 12:53:03;;;;;;;3.97;2.08;;;2.50;99.90;;;;;;5123055;28;20204;-36
2021/04/05 12:55:40;;;;;;;3.08;2.00;;;2.50;99.90;;;;;;5124964;27;20196;-33
2021/04/05 12:58:10;;;;;;;3.92;1.83;;;2.50;99.90;;;;;;5122242;27;20223;-33
2021/04/05 13:00:42;;;;;;;3.25;2.30;;;2.40;99.90;;;;;;5123769;28;20204;-37
2021/04/05 13:03:19;;;;;;;4.45;2.33;;;2.40;99.90;;;;;;5123165;28;20248;-36
2021/04/05 13:05:56;;;;;;;3.35;2.15;;;2.40;99.90;;;;;;5124038;28;20635;-36
2021/04/05 13:08:33;;;;;;;3.00;2.15;;;2.40;99.90;;;;;;5122735;28;20199;-33
2021/04/05 13:11:08;;;;;;;2.33;2.10;;;2.30;99.90;;;;;;5123250;28;20214;-33
2021/04/05 13:13:43;;;;;;;3.35;2.53;;;2.30;99.90;;;;;;5122048;28;20268;-35
2021/04/05 13:16:20;;;;;;;2.60;1.90;;;2.30;99.90;;;;;;5119686;28;20245;-36
2021/04/05 13:19:02;;;;;;;4.57;2.60;;;2.30;99.90;;;;;;5108747;28;20677;-35
2021/04/05 13:21:38;;;;;;;3.13;2.08;;;2.30;99.90;;;;;;5122833;28;20662;-36
2021/04/05 13:24:13;;;;;;;4.07;2.88;;;2.30;99.90;;;;;;5123375;28;20195;-34
2021/04/05 13:26:50;;;;;;;3.80;2.55;;;2.30;99.90;;;;;;5122038;28;20203;-35
2021/04/05 13:29:23;;;;;;;5.13;2.40;;;2.30;99.90;;;;;;5121012;28;20620;-35
2021/04/05 13:31:56;;;;;;;3.38;2.08;;;2.30;99.90;;;;;;5123416;28;20348;-35
2021/04/05 13:34:30;;;;;;;4.20;2.75;;;2.30;99.90;;;;;;5126745;28;20660;-31
2021/04/05 13:37:05;;;;;;;4.65;2.33;;;2.30;99.90;;;;;;5115682;28;20252;-38
2021/04/05 13:39:38;;;;;;;4.22;3.05;;;2.20;99.90;;;;;;5128053;28;20195;-37
2021/04/05 13:42:13;;;;;;;4.50;2.22;;;2.20;99.90;;;;;;5126904;28;20195;-34
2021/04/05 13:44:46;;;;;;;4.10;2.50;;;2.20;99.90;;;;;;5127537;28;20282;-36